createdAt,value
2018-01-24T00:00:41.443Z,50.87
2018-01-24T00:03:09.600Z,49.90
2018-01-24T00:05:37.609Z,48.17
2018-01-24T00:08:05.063Z,57.03
2018-01-24T00:10:32.524Z,57.57
2018-01-24T00:13:00.602Z,52.97
2018-01-24T00:15:28.057Z,55.13
2018-01-24T00:17:55.524Z,55.77
2018-01-24T00:20:23.285Z,64.07
2018-01-24T00:22:50.747Z,50.33
2018-01-24T00:25:18.211Z,45.80
2018-01-24T00:27:46.276Z,60.73
2018-01-24T00:30:13.731Z,54.13
2018-01-24T00:32:41.193Z,43.83
2018-01-24T00:35:10.815Z,49.63
2018-01-24T00:37:38.273Z,52.43
2018-01-24T00:40:05.741Z,47.63
2018-01-24T00:42:33.488Z,58.63
2018-01-24T00:45:00.940Z,49.40
2018-01-24T00:47:28.389Z,52.73
2018-01-24T00:49:56.177Z,49.00
2018-01-24T00:52:23.624Z,42.00
2018-01-24T00:54:51.076Z,49.50
2018-01-24T00:57:18.865Z,48.53
2018-01-24T00:59:46.313Z,45.80
2018-01-24T01:02:13.770Z,42.73
2018-01-24T01:04:41.860Z,42.63
2018-01-24T01:07:09.324Z,38.20
2018-01-24T01:09:36.786Z,48.87
2018-01-24T01:12:04.561Z,36.60
2018-01-24T01:14:32.016Z,49.00
2018-01-24T01:16:59.477Z,45.27
2018-01-24T01:19:27.228Z,55.97
2018-01-24T01:21:54.674Z,46.57
2018-01-24T01:24:22.133Z,42.93
2018-01-24T01:26:49.922Z,39.17
2018-01-24T01:29:17.393Z,48.83
2018-01-24T01:31:44.856Z,43.50
2018-01-24T01:34:12.604Z,49.73
2018-01-24T01:36:40.064Z,47.00
2018-01-24T01:39:07.529Z,46.23
2018-01-24T01:41:35.566Z,37.57
2018-01-24T01:44:03.031Z,53.13
2018-01-24T01:46:30.488Z,47.50
2018-01-24T01:48:58.290Z,54.23
2018-01-24T01:51:25.752Z,49.73
2018-01-24T01:53:53.216Z,47.77
2018-01-24T01:56:20.976Z,51.80
2018-01-24T01:58:48.448Z,61.60
2018-01-24T02:01:15.904Z,51.77
2018-01-24T02:03:43.980Z,46.90
2018-01-24T02:06:11.781Z,54.30
2018-01-24T02:08:39.231Z,45.27
2018-01-24T02:11:07.590Z,54.90
2018-01-24T02:13:35.040Z,51.47
2018-01-24T02:16:02.492Z,59.67
2018-01-24T02:18:30.231Z,50.70
2018-01-24T02:20:57.704Z,42.13
2018-01-24T02:23:25.167Z,50.13
2018-01-24T02:25:52.968Z,49.87
2018-01-24T02:28:20.434Z,48.73
2018-01-24T02:30:47.892Z,53.40
2018-01-24T02:33:16.256Z,51.83
2018-01-24T02:35:43.717Z,55.43
2018-01-24T02:38:23.461Z,55.33
2018-01-24T02:40:50.920Z,49.90
2018-01-24T02:43:18.372Z,49.63
2018-01-24T02:45:46.157Z,54.93
2018-01-24T02:48:13.618Z,56.13
2018-01-24T02:50:41.252Z,50.60
2018-01-24T02:53:09.374Z,45.87
2018-01-24T02:55:36.832Z,47.10
2018-01-24T02:58:04.289Z,51.03
2018-01-24T03:00:32.146Z,60.43
2018-01-24T03:02:59.604Z,46.33
2018-01-24T03:05:27.053Z,42.90
2018-01-24T03:07:55.471Z,46.00
2018-01-24T03:10:22.934Z,42.73
2018-01-24T03:12:50.393Z,47.83
2018-01-24T03:15:18.134Z,41.17
2018-01-24T03:17:45.591Z,49.50
2018-01-24T03:20:13.059Z,48.53
2018-01-24T03:22:41.081Z,41.77
2018-01-24T03:25:08.532Z,39.47
2018-01-24T03:27:35.988Z,36.50
2018-01-24T03:30:03.585Z,41.77
2018-01-24T03:32:31.044Z,44.63
2018-01-24T03:34:58.505Z,46.87
2018-01-24T03:37:26.233Z,50.33
2018-01-24T03:39:53.673Z,42.93
2018-01-24T03:42:21.128Z,50.17
2018-01-24T03:44:48.879Z,56.70
2018-01-24T03:47:16.345Z,38.17
2018-01-24T03:49:43.801Z,48.63
2018-01-24T03:52:11.551Z,59.97
2018-01-24T03:54:38.993Z,51.33
2018-01-24T03:57:06.448Z,45.03
2018-01-24T03:59:34.257Z,40.67
2018-01-24T04:02:01.736Z,44.10
2018-01-24T04:04:29.197Z,32.30
2018-01-24T04:06:56.947Z,47.10
2018-01-24T04:09:25.061Z,39.23
2018-01-24T04:11:52.525Z,73.63
2018-01-24T04:14:20.240Z,38.10
2018-01-24T04:16:47.701Z,39.90
2018-01-24T04:19:15.165Z,46.40
2018-01-24T04:21:42.933Z,40.17
2018-01-24T04:24:10.397Z,47.27
2018-01-24T04:26:37.857Z,30.10
2018-01-24T04:29:05.733Z,32.20
2018-01-24T04:31:33.192Z,37.50
2018-01-24T04:34:00.674Z,40.40
2018-01-24T04:36:28.500Z,31.10
2018-01-24T04:38:55.953Z,40.93
2018-01-24T04:41:23.401Z,27.87
2018-01-24T04:43:51.297Z,23.67
2018-01-24T04:46:18.756Z,25.13
2018-01-24T04:48:46.216Z,26.03
2018-01-24T04:51:13.982Z,22.03
2018-01-24T04:53:41.428Z,19.83
2018-01-24T04:56:08.893Z,24.53
2018-01-24T04:58:36.921Z,22.93
2018-01-24T05:01:04.381Z,19.57
2018-01-24T05:03:31.835Z,19.60
2018-01-24T05:05:59.664Z,21.10
2018-01-24T05:08:27.125Z,21.70
2018-01-24T05:10:55.277Z,16.70
2018-01-24T05:13:22.969Z,19.83
2018-01-24T05:15:50.436Z,20.80
2018-01-24T05:18:17.896Z,19.07
2018-01-24T05:20:46.664Z,21.20
2018-01-24T05:23:14.116Z,15.20
2018-01-24T05:25:41.576Z,22.37
2018-01-24T05:28:09.820Z,21.53
2018-01-24T05:30:37.279Z,19.80
2018-01-24T05:33:04.745Z,17.60
2018-01-24T05:35:32.564Z,21.90
2018-01-24T05:38:00.021Z,18.80
2018-01-24T05:40:27.497Z,16.40
2018-01-24T05:42:55.244Z,15.67
2018-01-24T05:45:22.698Z,14.33
2018-01-24T05:47:50.148Z,14.40
2018-01-24T05:50:17.933Z,20.90
2018-01-24T05:52:45.393Z,15.47
2018-01-24T05:55:12.848Z,21.77
2018-01-24T05:57:40.627Z,19.80
2018-01-24T06:00:08.084Z,15.40
2018-01-24T06:02:35.550Z,21.03
2018-01-24T06:05:03.309Z,22.47
2018-01-24T06:07:30.782Z,16.37
2018-01-24T06:09:58.240Z,27.30
2018-01-24T06:12:26.300Z,21.10
2018-01-24T06:14:53.756Z,24.90
2018-01-24T06:17:21.221Z,19.63
2018-01-24T06:19:48.988Z,23.03
2018-01-24T06:22:16.448Z,28.83
2018-01-24T06:24:43.907Z,29.03
2018-01-24T06:27:11.691Z,56.70
2018-01-24T06:29:39.170Z,27.20
2018-01-24T06:32:06.624Z,31.25
2018-01-24T06:34:34.352Z,34.43
2018-01-24T06:37:01.805Z,36.97
2018-01-24T06:39:29.262Z,26.30
2018-01-24T06:41:56.973Z,29.63
2018-01-24T06:44:24.431Z,29.13
2018-01-24T06:46:51.893Z,26.77
2018-01-24T06:49:20.007Z,33.63
2018-01-24T06:51:47.460Z,38.63
2018-01-24T06:54:14.927Z,35.87
2018-01-24T06:56:42.727Z,27.10
2018-01-24T06:59:10.185Z,42.83
2018-01-24T07:01:37.632Z,28.40
2018-01-24T07:04:05.366Z,35.47
2018-01-24T07:06:32.824Z,28.97
2018-01-24T07:09:00.297Z,26.33
2018-01-24T07:11:28.101Z,30.83
2018-01-24T07:14:07.561Z,30.87
2018-01-24T07:16:35.376Z,29.57
2018-01-24T07:19:02.827Z,28.20
2018-01-24T07:21:30.287Z,33.20
2018-01-24T07:24:00.457Z,27.60
2018-01-24T07:26:27.928Z,33.03
2018-01-24T07:28:55.384Z,29.33
2018-01-24T07:31:23.148Z,32.57
2018-01-24T07:33:50.612Z,30.70
2018-01-24T07:36:18.068Z,34.53
2018-01-24T07:38:45.833Z,23.67
2018-01-24T07:41:13.288Z,28.13
2018-01-24T07:43:40.745Z,24.83
2018-01-24T07:46:08.519Z,31.77
2018-01-24T07:48:35.972Z,48.07
2018-01-24T07:51:03.425Z,22.10
2018-01-24T07:53:31.207Z,19.93
2018-01-24T07:55:58.736Z,17.10
2018-01-24T07:58:26.197Z,21.53
2018-01-24T08:00:54.209Z,17.30
2018-01-24T08:03:21.669Z,17.20
2018-01-24T08:05:49.144Z,15.43
2018-01-24T08:08:16.893Z,15.00
2018-01-24T08:10:44.354Z,15.63
2018-01-24T08:13:11.811Z,16.30
2018-01-24T08:15:40.237Z,19.17
2018-01-24T08:18:07.696Z,27.47
2018-01-24T08:20:35.161Z,20.07
2018-01-24T08:23:02.884Z,32.87
2018-01-24T08:25:30.340Z,17.93
2018-01-24T08:27:57.792Z,26.57
2018-01-24T08:30:25.568Z,16.50
2018-01-24T08:32:53.027Z,14.40
2018-01-24T08:35:20.478Z,14.83
2018-01-24T08:37:48.247Z,18.67
2018-01-24T08:40:16.845Z,14.90
2018-01-24T08:42:44.304Z,17.13
2018-01-24T08:45:12.164Z,20.53
2018-01-24T08:47:39.621Z,15.43
2018-01-24T08:50:07.139Z,33.83
2018-01-24T08:52:34.852Z,13.93
2018-01-24T08:55:02.316Z,13.33
2018-01-24T08:57:29.785Z,15.97
2018-01-24T08:59:57.559Z,15.50
2018-01-24T09:02:25.017Z,15.70
2018-01-24T09:04:52.475Z,14.70
2018-01-24T09:07:20.224Z,15.80
2018-01-24T09:09:47.675Z,11.67
2018-01-24T09:12:15.129Z,19.63
2018-01-24T09:14:43.117Z,13.20
2018-01-24T09:17:10.756Z,11.43
2018-01-24T09:19:38.209Z,10.43
2018-01-24T09:22:06.084Z,12.40
2018-01-24T09:24:33.533Z,21.10
2018-01-24T09:27:00.988Z,16.33
2018-01-24T09:29:28.905Z,22.70
2018-01-24T09:31:56.358Z,18.50
2018-01-24T09:34:23.818Z,16.17
2018-01-24T09:36:51.594Z,16.83
2018-01-24T09:39:19.044Z,15.93
2018-01-24T09:41:46.496Z,15.90
2018-01-24T09:44:14.285Z,18.93
2018-01-24T09:46:41.771Z,19.23
2018-01-24T09:49:09.422Z,18.77
2018-01-24T09:51:37.289Z,15.77
2018-01-24T09:54:04.753Z,13.53
2018-01-24T09:56:32.202Z,30.80
2018-01-24T09:58:59.964Z,21.43
2018-01-24T10:01:27.413Z,11.90
2018-01-24T10:03:54.869Z,14.37
2018-01-24T10:06:22.641Z,14.87
2018-01-24T10:08:50.090Z,16.00
2018-01-24T10:11:17.533Z,17.43
2018-01-24T10:13:45.640Z,16.60
2018-01-24T10:16:14.719Z,19.20
2018-01-24T10:18:42.689Z,21.03
2018-01-24T10:21:10.472Z,16.43
2018-01-24T10:23:37.912Z,16.00
2018-01-24T10:26:05.404Z,23.30
2018-01-24T10:28:33.072Z,19.90
2018-01-24T10:31:00.551Z,19.27
2018-01-24T10:33:28.008Z,17.33
2018-01-24T10:35:55.841Z,41.53
2018-01-24T10:38:23.298Z,18.93
2018-01-24T10:40:50.754Z,19.77
2018-01-24T10:43:18.540Z,14.13
2018-01-24T10:45:46.002Z,13.43
2018-01-24T10:48:13.457Z,12.93
2018-01-24T10:50:41.537Z,16.80
2018-01-24T10:53:08.996Z,13.00
2018-01-24T10:55:36.454Z,14.10
2018-01-24T10:58:04.168Z,20.63
2018-01-24T11:00:31.622Z,16.93
2018-01-24T11:02:59.085Z,13.70
2018-01-24T11:05:26.901Z,15.20
2018-01-24T11:07:54.356Z,19.40
2018-01-24T11:10:21.800Z,13.37
2018-01-24T11:12:49.640Z,19.33
2018-01-24T11:15:17.098Z,17.20
2018-01-24T11:17:44.545Z,16.80
2018-01-24T11:20:14.169Z,20.50
2018-01-24T11:22:41.634Z,17.33
2018-01-24T11:25:09.088Z,15.10
2018-01-24T11:27:36.820Z,12.73
2018-01-24T11:30:04.275Z,21.87
2018-01-24T11:32:31.720Z,12.87
2018-01-24T11:34:59.498Z,15.00
2018-01-24T11:37:26.960Z,23.13
2018-01-24T11:39:54.417Z,10.63
2018-01-24T11:42:22.152Z,26.83
2018-01-24T11:44:49.599Z,12.83
2018-01-24T11:47:17.056Z,15.43
2018-01-24T11:49:44.865Z,23.53
2018-01-24T11:52:12.309Z,17.70
2018-01-24T11:54:39.765Z,20.53
2018-01-24T11:57:07.496Z,12.77
2018-01-24T11:59:34.962Z,19.80
2018-01-24T12:02:02.421Z,12.60
2018-01-24T12:04:31.784Z,12.53
2018-01-24T12:06:59.247Z,18.10
2018-01-24T12:09:26.785Z,11.07
2018-01-24T12:11:54.572Z,11.20
2018-01-24T12:14:22.029Z,11.13
2018-01-24T12:16:49.480Z,11.33
2018-01-24T12:19:17.186Z,10.33
2018-01-24T12:21:45.292Z,10.13
2018-01-24T12:24:12.743Z,11.77
2018-01-24T12:26:40.449Z,12.03
2018-01-24T12:29:07.905Z,12.20
2018-01-24T12:31:35.352Z,10.47
2018-01-24T12:34:03.138Z,9.80
2018-01-24T12:36:30.581Z,11.27
2018-01-24T12:38:58.021Z,14.37
2018-01-24T12:41:25.826Z,19.10
2018-01-24T12:43:53.282Z,47.80
2018-01-24T12:46:20.733Z,13.23
2018-01-24T12:48:48.836Z,16.70
2018-01-24T12:51:16.318Z,13.27
2018-01-24T12:53:43.768Z,12.23
2018-01-24T12:56:11.829Z,19.10
2018-01-24T12:58:39.284Z,13.60
2018-01-24T13:01:06.745Z,22.80
2018-01-24T13:03:34.496Z,19.10
2018-01-24T13:06:01.968Z,15.80
2018-01-24T13:08:29.427Z,15.37
2018-01-24T13:10:57.496Z,26.80
2018-01-24T13:13:24.957Z,12.43
2018-01-24T13:15:52.412Z,17.33
2018-01-24T13:18:20.181Z,24.43
2018-01-24T13:20:47.638Z,17.80
2018-01-24T13:23:15.493Z,22.63
2018-01-24T13:25:43.208Z,19.93
2018-01-24T13:28:10.665Z,19.57
2018-01-24T13:30:38.121Z,21.20
2018-01-24T13:33:05.753Z,25.40
2018-01-24T13:35:33.196Z,33.13
2018-01-24T13:38:00.648Z,31.57
2018-01-24T13:40:28.575Z,32.27
2018-01-24T13:42:56.033Z,30.63
2018-01-24T13:45:23.488Z,41.10
2018-01-24T13:47:51.248Z,24.80
2018-01-24T13:50:18.704Z,27.57
2018-01-24T13:52:46.157Z,21.13
2018-01-24T13:55:13.933Z,40.17
2018-01-24T13:57:41.400Z,25.10
2018-01-24T14:00:08.857Z,20.20
2018-01-24T14:02:36.917Z,28.47
2018-01-24T14:05:04.375Z,34.13
2018-01-24T14:07:31.834Z,24.90
2018-01-24T14:09:59.629Z,31.80
2018-01-24T14:12:27.088Z,25.23
2018-01-24T14:14:54.545Z,23.67
2018-01-24T14:17:22.308Z,32.70
2018-01-24T14:19:49.777Z,34.27
2018-01-24T14:22:17.251Z,22.53
2018-01-24T14:24:46.205Z,30.93
2018-01-24T14:27:13.653Z,24.30
2018-01-24T14:29:41.109Z,26.80
2018-01-24T14:32:08.742Z,23.10
2018-01-24T14:34:36.204Z,37.70
2018-01-24T14:37:03.664Z,25.07
2018-01-24T14:39:31.598Z,25.53
2018-01-24T14:41:59.049Z,16.77
2018-01-24T14:44:26.511Z,20.10
2018-01-24T14:46:54.268Z,24.63
2018-01-24T14:49:21.722Z,23.00
2018-01-24T14:51:49.185Z,31.60
2018-01-24T14:54:16.964Z,27.73
2018-01-24T14:56:44.440Z,27.43
2018-01-24T14:59:11.899Z,26.23
2018-01-24T15:01:39.652Z,22.77
2018-01-24T15:04:07.116Z,19.70
2018-01-24T15:06:34.584Z,21.53
2018-01-24T15:09:02.307Z,32.23
2018-01-24T15:11:29.755Z,15.30
2018-01-24T15:13:57.213Z,24.17
2018-01-24T15:16:25.025Z,13.83
2018-01-24T15:18:52.508Z,16.47
2018-01-24T15:21:20.028Z,18.80
2018-01-24T15:23:47.700Z,14.10
2018-01-24T15:26:15.849Z,13.60
2018-01-24T15:28:43.301Z,19.03
2018-01-24T15:31:11.320Z,17.23
2018-01-24T15:33:38.768Z,12.13
2018-01-24T15:36:06.218Z,11.80
2018-01-24T15:38:34.005Z,12.40
2018-01-24T15:41:01.457Z,12.77
2018-01-24T15:43:28.909Z,11.50
2018-01-24T15:45:56.685Z,13.90
2018-01-24T15:48:24.134Z,12.40
2018-01-24T15:50:51.584Z,15.03
2018-01-24T15:53:19.380Z,18.60
2018-01-24T15:55:46.824Z,13.37
2018-01-24T15:58:14.276Z,14.80
2018-01-24T16:00:42.059Z,12.00
2018-01-24T16:03:09.507Z,13.73
2018-01-24T16:05:36.974Z,17.27
2018-01-24T16:08:04.741Z,16.37
2018-01-24T16:10:32.188Z,25.57
2018-01-24T16:12:59.642Z,20.17
2018-01-24T16:15:27.440Z,17.70
2018-01-24T16:17:54.906Z,19.87
2018-01-24T16:20:22.359Z,22.00
2018-01-24T16:22:50.121Z,21.30
2018-01-24T16:25:17.580Z,27.60
2018-01-24T16:27:45.028Z,27.70
2018-01-24T16:30:12.740Z,28.80
2018-01-24T16:32:40.200Z,25.47
2018-01-24T16:35:07.656Z,34.10
2018-01-24T16:37:35.526Z,30.90
2018-01-24T16:40:03.002Z,22.80
2018-01-24T16:42:30.474Z,34.37
2018-01-24T16:44:58.182Z,45.37
2018-01-24T16:47:25.634Z,22.23
2018-01-24T16:49:53.095Z,30.80
2018-01-24T16:52:21.203Z,58.63
2018-01-24T16:54:48.656Z,35.33
2018-01-24T16:57:16.108Z,32.33
2018-01-24T16:59:43.863Z,28.03
2018-01-24T17:02:11.328Z,21.00
2018-01-24T17:04:38.794Z,27.87
2018-01-24T17:07:06.561Z,23.20
2018-01-24T17:09:34.021Z,25.17
2018-01-24T17:12:01.480Z,26.00
2018-01-24T17:14:29.237Z,22.67
2018-01-24T17:16:56.715Z,21.50
2018-01-24T17:19:24.166Z,23.17
2018-01-24T17:21:51.929Z,32.00
2018-01-24T17:24:19.394Z,22.73
2018-01-24T17:26:46.865Z,35.53
2018-01-24T17:29:17.682Z,26.60
2018-01-24T17:31:45.141Z,22.03
2018-01-24T17:34:12.604Z,33.13
2018-01-24T17:36:40.684Z,27.43
2018-01-24T17:39:08.144Z,23.80
2018-01-24T17:41:35.621Z,28.57
2018-01-24T17:44:03.727Z,22.87
2018-01-24T17:46:31.192Z,23.37
2018-01-24T17:48:58.649Z,24.77
2018-01-24T17:51:26.355Z,28.60
2018-01-24T17:53:53.864Z,21.37
2018-01-24T17:56:21.334Z,29.50
2018-01-24T17:58:49.116Z,43.97
2018-01-24T18:01:16.583Z,36.43
2018-01-24T18:03:44.059Z,25.20
2018-01-24T18:06:11.910Z,38.27
2018-01-24T18:08:39.360Z,43.30
2018-01-24T18:11:06.816Z,39.93
2018-01-24T18:13:34.923Z,30.93
2018-01-24T18:16:03.389Z,24.87
2018-01-24T18:18:32.365Z,23.10
2018-01-24T18:21:01.851Z,25.73
2018-01-24T18:23:29.416Z,24.53
2018-01-24T18:25:56.878Z,20.03
2018-01-24T18:28:24.718Z,28.93
2018-01-24T18:30:54.505Z,24.93
2018-01-24T18:33:23.483Z,21.30
2018-01-24T18:35:53.128Z,21.93
2018-01-24T18:38:21.042Z,25.35
2018-01-24T18:40:50.203Z,14.77
2018-01-24T18:43:18.152Z,13.83
2018-01-24T18:45:47.476Z,18.63
2018-01-24T18:48:15.129Z,19.17
2018-01-24T18:50:42.931Z,26.30
2018-01-24T18:53:11.992Z,20.80
2018-01-24T18:55:39.525Z,32.83
2018-01-24T18:58:07.457Z,23.83
2018-01-24T19:00:34.914Z,16.57
2018-01-24T19:03:02.386Z,24.33
2018-01-24T19:05:30.125Z,18.57
2018-01-24T19:07:57.580Z,16.73
2018-01-24T19:10:25.040Z,19.17
2018-01-24T19:12:53.130Z,19.23
2018-01-24T19:15:20.599Z,19.33
2018-01-24T19:17:48.075Z,29.43
2018-01-24T19:20:16.426Z,24.67
2018-01-24T19:22:44.183Z,22.47
2018-01-24T19:25:12.361Z,15.97
2018-01-24T19:27:39.972Z,24.37
2018-01-24T19:30:07.441Z,33.97
2018-01-24T19:32:36.506Z,38.90
2018-01-24T19:35:04.569Z,69.27
2018-01-24T19:37:32.031Z,59.60
2018-01-24T19:39:59.487Z,33.43
2018-01-24T19:42:27.268Z,29.97
2018-01-24T19:44:54.766Z,30.73
2018-01-24T19:47:23.865Z,35.57
2018-01-24T19:49:52.068Z,28.60
2018-01-24T19:52:19.666Z,37.03
2018-01-24T19:54:47.444Z,32.63
2018-01-24T19:57:15.932Z,27.80
2018-01-24T19:59:44.345Z,46.77
2018-01-24T20:02:11.989Z,30.57
2018-01-24T20:04:40.397Z,71.07
2018-01-24T20:07:07.843Z,53.40
2018-01-24T20:09:35.379Z,41.57
2018-01-24T20:12:04.450Z,38.43
2018-01-24T20:14:31.986Z,45.50
2018-01-24T20:16:59.436Z,37.20
2018-01-24T20:19:27.763Z,52.03
2018-01-24T20:21:55.720Z,32.80
2018-01-24T20:24:23.336Z,35.87
2018-01-24T20:26:51.372Z,42.67
2018-01-24T20:29:18.823Z,43.73
2018-01-24T20:31:46.891Z,54.13
2018-01-24T20:34:16.184Z,37.10
2018-01-24T20:36:43.652Z,34.90
2018-01-24T20:39:11.113Z,30.30
2018-01-24T20:41:38.827Z,45.27
2018-01-24T20:44:07.335Z,52.80
2018-01-24T20:46:36.002Z,47.53
2018-01-24T20:49:04.340Z,44.80
2018-01-24T20:51:31.791Z,28.57
2018-01-24T20:53:59.269Z,53.43
2018-01-24T20:56:27.018Z,43.37
2018-01-24T20:58:54.481Z,48.33
2018-01-24T21:01:21.948Z,38.43
2018-01-24T21:03:49.710Z,52.07
2018-01-24T21:13:00.848Z,53.37
2018-01-24T21:15:28.309Z,30.50
2018-01-24T21:17:55.756Z,29.10
2018-01-24T21:20:23.526Z,36.73
2018-01-24T21:22:50.972Z,46.17
2018-01-24T21:25:18.435Z,28.37
2018-01-24T21:27:46.524Z,34.27
2018-01-24T21:30:21.674Z,38.40
2018-01-24T21:33:01.404Z,44.07
2018-01-24T21:35:42.061Z,35.03
2018-01-24T21:38:09.845Z,30.60
2018-01-24T21:40:37.300Z,26.37
2018-01-24T21:43:04.756Z,29.17
2018-01-24T21:45:32.534Z,47.67
2018-01-24T21:48:00.007Z,29.60
2018-01-24T21:50:27.477Z,24.97
2018-01-24T21:52:55.540Z,25.13
2018-01-24T21:55:23.008Z,25.77
2018-01-24T21:57:50.464Z,33.90
2018-01-24T22:00:18.529Z,25.87
2018-01-24T22:02:46.004Z,31.60
2018-01-24T22:05:13.461Z,27.87
2018-01-24T22:07:41.205Z,33.07
2018-01-24T22:10:08.660Z,24.80
2018-01-24T22:12:36.115Z,37.33
2018-01-24T22:15:03.909Z,25.07
2018-01-24T22:17:31.473Z,36.93
2018-01-24T22:19:58.928Z,25.23
2018-01-24T22:22:26.897Z,31.60
2018-01-24T22:24:54.356Z,22.53
2018-01-24T22:27:21.821Z,33.27
2018-01-24T22:29:49.583Z,28.80
2018-01-24T22:32:17.049Z,20.37
2018-01-24T22:34:44.540Z,27.67
2018-01-24T22:37:12.876Z,33.33
2018-01-24T22:39:40.332Z,26.17
2018-01-24T22:42:07.787Z,23.40
2018-01-24T22:44:35.574Z,23.27
2018-01-24T22:47:03.040Z,25.03
2018-01-24T22:49:30.493Z,23.27
2018-01-24T22:51:58.243Z,30.67
2018-01-24T22:54:25.696Z,27.03
2018-01-24T22:56:53.153Z,29.57
2018-01-24T22:59:20.951Z,27.43
2018-01-24T23:01:48.404Z,24.20
2018-01-24T23:04:15.853Z,32.93
2018-01-24T23:06:43.625Z,27.20
2018-01-24T23:09:11.083Z,19.90
2018-01-24T23:11:38.553Z,25.13
2018-01-24T23:14:06.164Z,25.63
2018-01-24T23:16:33.625Z,23.33
2018-01-24T23:19:01.077Z,32.00
2018-01-24T23:21:29.000Z,38.03
2018-01-24T23:23:56.510Z,42.80
2018-01-24T23:26:23.932Z,27.63
2018-01-24T23:28:52.001Z,28.57
2018-01-24T23:31:19.449Z,22.57
2018-01-24T23:33:46.902Z,23.90
2018-01-24T23:36:14.680Z,45.13
2018-01-24T23:38:42.528Z,37.57
2018-01-24T23:41:09.979Z,29.70
2018-01-24T23:43:37.685Z,28.50
2018-01-24T23:46:05.141Z,26.30
2018-01-24T23:48:32.596Z,34.10
2018-01-24T23:51:00.370Z,25.10
2018-01-24T23:53:27.833Z,28.60
2018-01-24T23:55:55.290Z,27.37
2018-01-24T23:58:25.201Z,36.30
